createdAt,value
2018-03-02T00:01:12.582Z,24.70
2018-03-02T00:03:38.864Z,23.87
2018-03-02T00:06:05.961Z,23.80
2018-03-02T00:08:32.264Z,24.23
2018-03-02T00:10:58.555Z,25.37
2018-03-02T00:13:34.917Z,25.00
2018-03-02T00:16:01.198Z,23.63
2018-03-02T00:18:27.596Z,25.07
2018-03-02T00:20:53.883Z,25.27
2018-03-02T00:23:20.117Z,25.17
2018-03-02T00:25:46.451Z,23.63
2018-03-02T00:28:24.090Z,24.93
2018-03-02T00:30:51.164Z,21.87
2018-03-02T00:33:18.429Z,23.70
2018-03-02T00:35:45.429Z,24.10
2018-03-02T00:38:11.702Z,24.00
2018-03-02T00:40:38.018Z,23.60
2018-03-02T00:43:04.446Z,24.10
2018-03-02T00:45:30.778Z,25.30
2018-03-02T00:47:57.188Z,23.40
2018-03-02T00:50:23.615Z,23.53
2018-03-02T00:52:49.872Z,20.30
2018-03-02T00:55:16.281Z,22.10
2018-03-02T00:57:42.567Z,24.73
2018-03-02T01:00:08.868Z,24.67
2018-03-02T01:02:35.166Z,22.90
2018-03-02T01:05:02.196Z,23.83
2018-03-02T01:07:28.513Z,23.97
2018-03-02T01:09:54.943Z,24.20
2018-03-02T01:12:21.505Z,25.17
2018-03-02T01:14:47.822Z,24.23
2018-03-02T01:17:15.077Z,24.30
2018-03-02T01:19:41.368Z,24.13
2018-03-02T01:22:07.694Z,24.80
2018-03-02T01:24:34.123Z,24.10
2018-03-02T01:27:00.490Z,24.13
2018-03-02T01:29:26.810Z,25.27
2018-03-02T01:31:53.105Z,23.77
2018-03-02T01:34:19.680Z,23.60
2018-03-02T01:36:45.969Z,24.30
2018-03-02T01:39:12.979Z,24.93
2018-03-02T01:41:40.180Z,23.03
2018-03-02T01:44:07.336Z,24.20
2018-03-02T01:46:33.888Z,25.03
2018-03-02T01:49:00.221Z,24.57
2018-03-02T01:51:38.650Z,25.33
2018-03-02T01:54:05.014Z,25.33
2018-03-02T01:56:31.270Z,23.67
2018-03-02T01:58:57.583Z,24.03
2018-03-02T02:01:23.986Z,24.67
2018-03-02T02:03:51.197Z,23.53
2018-03-02T02:06:17.499Z,24.37
2018-03-02T02:08:45.694Z,24.40
2018-03-02T02:11:12.028Z,25.13
2018-03-02T02:13:39.038Z,23.90
2018-03-02T02:16:05.344Z,24.63
2018-03-02T02:18:32.441Z,24.17
2018-03-02T02:20:58.727Z,25.33
2018-03-02T02:23:25.027Z,25.40
2018-03-02T02:25:51.332Z,24.00
2018-03-02T02:28:17.663Z,25.37
2018-03-02T02:30:44.699Z,23.53
2018-03-02T02:33:10.967Z,23.20
2018-03-02T02:35:38.129Z,23.67
2018-03-02T02:38:05.144Z,22.80
2018-03-02T02:40:31.416Z,24.07
2018-03-02T02:42:58.017Z,22.67
2018-03-02T02:45:24.511Z,23.80
2018-03-02T02:47:50.844Z,23.73
2018-03-02T02:50:17.146Z,25.33
2018-03-02T02:52:43.398Z,23.47
2018-03-02T02:55:09.696Z,22.13
2018-03-02T02:57:36.792Z,24.10
2018-03-02T03:00:03.201Z,24.70
2018-03-02T03:02:30.270Z,24.13
2018-03-02T03:04:57.388Z,24.80
2018-03-02T03:07:23.708Z,25.30
2018-03-02T03:09:50.068Z,25.40
2018-03-02T03:12:16.425Z,24.03
2018-03-02T03:14:42.758Z,23.37
2018-03-02T03:17:09.120Z,23.50
2018-03-02T03:19:35.364Z,26.27
2018-03-02T03:22:01.664Z,25.30
2018-03-02T03:24:27.996Z,24.90
2018-03-02T03:26:54.278Z,25.30
2018-03-02T03:29:20.679Z,24.43
2018-03-02T03:31:46.910Z,25.47
2018-03-02T03:34:13.170Z,26.63
2018-03-02T03:36:39.487Z,27.10
2018-03-02T03:39:06.548Z,26.00
2018-03-02T03:41:32.829Z,24.50
2018-03-02T03:43:59.557Z,25.40
2018-03-02T03:46:25.821Z,25.73
2018-03-02T03:48:52.164Z,25.43
2018-03-02T03:51:19.290Z,25.93
2018-03-02T03:53:46.320Z,24.73
2018-03-02T03:56:25.621Z,23.40
2018-03-02T03:58:51.950Z,23.70
2018-03-02T04:01:18.220Z,25.80
2018-03-02T04:03:45.374Z,25.23
2018-03-02T04:06:11.638Z,23.70
2018-03-02T04:08:38.067Z,26.17
2018-03-02T04:11:04.327Z,24.10
2018-03-02T04:13:30.620Z,25.83
2018-03-02T04:15:56.950Z,24.43
2018-03-02T04:18:24.008Z,24.07
2018-03-02T04:20:51.024Z,24.87
2018-03-02T04:23:17.345Z,25.03
2018-03-02T04:25:44.524Z,24.63
2018-03-02T04:28:10.832Z,23.43
2018-03-02T04:30:37.854Z,24.13
2018-03-02T04:33:04.192Z,23.30
2018-03-02T04:35:30.528Z,24.63
2018-03-02T04:37:56.844Z,23.67
2018-03-02T04:40:23.151Z,24.37
2018-03-02T04:42:50.171Z,23.93
2018-03-02T04:45:17.275Z,23.87
2018-03-02T04:47:44.410Z,23.73
2018-03-02T04:50:10.822Z,22.47
2018-03-02T04:52:37.117Z,24.83
2018-03-02T04:55:03.398Z,23.73
2018-03-02T04:57:29.754Z,24.77
2018-03-02T04:59:56.101Z,25.93
2018-03-02T05:02:22.439Z,24.60
2018-03-02T05:04:48.744Z,24.60
2018-03-02T05:07:15.854Z,23.13
2018-03-02T05:09:42.895Z,24.23
2018-03-02T05:12:09.209Z,25.23
2018-03-02T05:14:36.253Z,23.57
2018-03-02T05:17:02.551Z,22.93
2018-03-02T05:19:28.884Z,23.93
2018-03-02T05:21:55.177Z,23.23
2018-03-02T05:24:21.511Z,23.40
2018-03-02T05:26:47.785Z,22.60
2018-03-02T05:29:15.148Z,23.80
2018-03-02T05:31:42.123Z,24.00
2018-03-02T05:34:08.425Z,23.77
2018-03-02T05:36:34.770Z,25.33
2018-03-02T05:39:01.027Z,26.47
2018-03-02T05:41:28.175Z,25.43
2018-03-02T05:43:54.472Z,23.40
2018-03-02T05:46:20.847Z,25.33
2018-03-02T05:48:47.236Z,24.47
2018-03-02T05:51:13.507Z,25.63
2018-03-02T05:53:39.835Z,24.37
2018-03-02T05:56:06.179Z,25.13
2018-03-02T05:58:32.434Z,24.83
2018-03-02T06:00:58.831Z,24.50
2018-03-02T06:03:25.129Z,24.30
2018-03-02T06:05:51.397Z,24.83
2018-03-02T06:08:17.730Z,25.93
2018-03-02T06:10:43.998Z,25.10
2018-03-02T06:13:10.338Z,27.33
2018-03-02T06:15:36.614Z,28.97
2018-03-02T06:18:02.931Z,28.77
2018-03-02T06:20:29.261Z,29.30
2018-03-02T06:22:55.557Z,26.17
2018-03-02T06:25:21.880Z,26.47
2018-03-02T06:27:48.924Z,26.33
2018-03-02T06:30:15.957Z,25.90
2018-03-02T06:32:42.240Z,33.73
2018-03-02T06:35:09.309Z,26.63
2018-03-02T06:37:35.618Z,26.97
2018-03-02T06:40:01.931Z,25.40
2018-03-02T06:42:28.254Z,26.70
2018-03-02T06:44:54.491Z,27.77
2018-03-02T06:47:20.754Z,28.50
2018-03-02T06:49:47.052Z,28.10
2018-03-02T06:52:14.050Z,27.57
2018-03-02T06:54:40.346Z,29.37
2018-03-02T06:57:07.382Z,29.90
2018-03-02T06:59:33.710Z,29.13
2018-03-02T07:02:00.136Z,29.27
2018-03-02T07:04:26.410Z,29.83
2018-03-02T07:06:52.775Z,29.47
2018-03-02T07:09:19.028Z,30.57
2018-03-02T07:11:46.328Z,29.93
2018-03-02T07:14:12.613Z,28.53
2018-03-02T07:16:38.918Z,28.63
2018-03-02T07:19:05.193Z,26.10
2018-03-02T07:21:31.544Z,28.93
2018-03-02T07:23:57.838Z,29.53
2018-03-02T07:26:24.145Z,27.00
2018-03-02T07:28:51.010Z,29.83
2018-03-02T07:31:17.355Z,27.80
2018-03-02T07:33:44.346Z,28.23
2018-03-02T07:36:10.684Z,28.43
2018-03-02T07:38:36.989Z,26.40
2018-03-02T07:41:04.013Z,27.03
2018-03-02T07:43:30.327Z,26.57
2018-03-02T07:45:56.706Z,27.47
2018-03-02T07:48:22.982Z,25.33
2018-03-02T07:50:50.084Z,25.60
2018-03-02T07:53:16.373Z,26.63
2018-03-02T07:55:43.382Z,28.27
2018-03-02T07:58:09.638Z,25.30
2018-03-02T08:00:35.941Z,25.90
2018-03-02T08:03:02.319Z,28.23
2018-03-02T08:05:28.996Z,28.07
2018-03-02T08:07:55.299Z,28.60
2018-03-02T08:10:21.568Z,28.20
2018-03-02T08:12:47.871Z,27.40
2018-03-02T08:15:14.133Z,26.27
2018-03-02T08:17:40.475Z,25.77
2018-03-02T08:20:06.735Z,25.97
2018-03-02T08:22:33.026Z,27.80
2018-03-02T08:24:59.489Z,28.03
2018-03-02T08:27:25.767Z,29.23
2018-03-02T08:29:52.102Z,28.97
2018-03-02T08:32:18.434Z,27.67
2018-03-02T08:34:44.725Z,32.23
2018-03-02T08:37:11.809Z,28.87
2018-03-02T08:39:38.848Z,30.27
2018-03-02T08:42:05.928Z,31.63
2018-03-02T08:44:33.046Z,32.47
2018-03-02T08:46:59.449Z,31.83
2018-03-02T08:49:25.711Z,30.73
2018-03-02T08:51:52.047Z,30.03
2018-03-02T08:54:18.447Z,29.83
2018-03-02T08:56:45.604Z,29.93
2018-03-02T08:59:11.844Z,29.47
2018-03-02T09:01:38.141Z,30.33
2018-03-02T09:04:04.470Z,31.27
2018-03-02T09:06:30.753Z,32.07
2018-03-02T09:08:57.502Z,30.47
2018-03-02T09:11:23.921Z,29.20
2018-03-02T09:13:50.281Z,33.17
2018-03-02T09:16:16.613Z,31.93
2018-03-02T09:18:43.087Z,28.93
2018-03-02T09:21:09.482Z,31.37
2018-03-02T09:23:35.898Z,32.47
2018-03-02T09:26:02.234Z,29.93
2018-03-02T09:28:29.249Z,30.03
2018-03-02T09:30:55.573Z,29.87
2018-03-02T09:33:22.071Z,26.23
2018-03-02T09:35:48.347Z,25.93
2018-03-02T09:38:16.290Z,30.73
2018-03-02T09:40:42.745Z,28.77
2018-03-02T09:43:09.163Z,31.47
2018-03-02T09:45:35.573Z,30.00
2018-03-02T09:48:03.249Z,27.47
2018-03-02T09:50:29.857Z,29.73
2018-03-02T09:52:56.939Z,29.70
2018-03-02T09:55:23.502Z,27.13
2018-03-02T09:57:49.820Z,27.33
2018-03-02T10:00:16.349Z,26.60
2018-03-02T10:02:43.397Z,27.13
2018-03-02T10:05:09.792Z,27.20
2018-03-02T10:07:36.231Z,25.60
2018-03-02T10:10:03.408Z,24.67
2018-03-02T10:12:29.824Z,26.37
2018-03-02T10:14:56.550Z,28.00
2018-03-02T10:17:23.821Z,28.30
2018-03-02T10:19:50.156Z,27.33
2018-03-02T10:22:16.782Z,26.23
2018-03-02T10:24:43.150Z,25.17
2018-03-02T10:27:09.526Z,27.43
2018-03-02T10:29:35.848Z,24.00
2018-03-02T10:32:02.183Z,26.73
2018-03-02T10:34:29.090Z,25.60
2018-03-02T10:36:55.516Z,25.30
2018-03-02T10:39:22.197Z,25.53
2018-03-02T10:41:48.447Z,25.10
2018-03-02T10:44:18.699Z,25.07
2018-03-02T10:46:45.138Z,25.80
2018-03-02T10:49:11.525Z,21.43
2018-03-02T10:51:37.793Z,26.03
2018-03-02T10:54:04.822Z,25.27
2018-03-02T10:56:31.119Z,26.93
2018-03-02T10:58:57.543Z,25.90
2018-03-02T11:01:25.837Z,26.17
2018-03-02T11:03:58.584Z,24.13
2018-03-02T11:06:24.903Z,25.53
2018-03-02T11:08:51.160Z,25.40
2018-03-02T11:11:17.614Z,24.40
2018-03-02T11:13:43.942Z,27.07
2018-03-02T11:16:10.171Z,28.50
2018-03-02T11:18:36.516Z,26.43
2018-03-02T11:21:02.817Z,26.07
2018-03-02T11:23:29.959Z,24.70
2018-03-02T11:25:56.529Z,25.40
2018-03-02T11:28:22.928Z,20.67
2018-03-02T11:30:49.213Z,25.00
2018-03-02T11:33:15.702Z,25.67
2018-03-02T11:35:42.066Z,24.27
2018-03-02T11:38:08.290Z,25.37
2018-03-02T11:40:34.567Z,23.23
2018-03-02T11:43:00.931Z,26.13
2018-03-02T11:45:28.116Z,27.03
2018-03-02T11:47:57.746Z,25.37
2018-03-02T11:50:24.153Z,26.97
2018-03-02T11:52:51.304Z,23.67
2018-03-02T11:55:17.608Z,24.90
2018-03-02T11:57:43.936Z,25.13
2018-03-02T12:00:10.634Z,27.23
2018-03-02T12:02:36.996Z,27.00
2018-03-02T12:05:03.403Z,24.10
2018-03-02T12:07:29.882Z,25.23
2018-03-02T12:09:56.232Z,25.17
2018-03-02T12:12:22.588Z,26.33
2018-03-02T12:14:49.639Z,25.30
2018-03-02T12:17:16.673Z,22.47
2018-03-02T12:19:44.638Z,26.07
2018-03-02T12:22:10.948Z,25.20
2018-03-02T12:24:37.303Z,24.23
2018-03-02T12:27:03.590Z,23.93
2018-03-02T12:29:29.890Z,24.73
2018-03-02T12:31:56.822Z,24.60
2018-03-02T12:34:24.035Z,23.97
2018-03-02T12:36:50.385Z,24.00
2018-03-02T12:39:16.666Z,25.27
2018-03-02T12:41:43.672Z,22.90
2018-03-02T12:44:09.987Z,22.07
2018-03-02T12:46:39.389Z,22.07
2018-03-02T12:49:05.707Z,24.27
2018-03-02T12:51:32.002Z,23.70
2018-03-02T12:53:58.658Z,22.93
2018-03-02T12:56:25.197Z,22.63
2018-03-02T12:58:51.736Z,24.53
2018-03-02T13:01:18.073Z,24.10
2018-03-02T13:03:44.325Z,23.77
2018-03-02T13:06:10.586Z,24.07
2018-03-02T13:08:36.991Z,23.37
2018-03-02T13:11:03.338Z,22.83
2018-03-02T13:13:29.848Z,21.73
2018-03-02T13:15:56.262Z,22.37
2018-03-02T13:18:34.887Z,24.63
2018-03-02T13:21:01.222Z,21.17
2018-03-02T13:23:29.595Z,23.67
2018-03-02T13:25:56.118Z,22.50
2018-03-02T13:28:35.618Z,24.37
2018-03-02T13:31:01.979Z,25.10
2018-03-02T13:33:40.692Z,26.23
2018-03-02T13:36:09.884Z,26.10
2018-03-02T13:38:36.985Z,26.93
2018-03-02T13:41:16.947Z,22.83
2018-03-02T13:43:43.324Z,25.97
2018-03-02T13:46:09.656Z,25.30
2018-03-02T13:48:48.356Z,25.23
2018-03-02T13:51:14.631Z,25.90
2018-03-02T13:53:40.986Z,25.10
2018-03-02T13:56:07.334Z,23.73
2018-03-02T13:58:33.669Z,24.37
2018-03-02T14:01:00.053Z,22.80
2018-03-02T14:03:38.775Z,23.17
2018-03-02T14:06:05.804Z,23.97
2018-03-02T14:08:32.081Z,24.87
2018-03-02T14:10:59.385Z,23.83
2018-03-02T14:13:25.740Z,24.93
2018-03-02T14:15:52.007Z,24.87
2018-03-02T14:18:18.427Z,24.47
2018-03-02T14:20:44.722Z,24.23
2018-03-02T14:23:11.738Z,24.40
2018-03-02T14:25:38.035Z,24.70
2018-03-02T14:28:05.521Z,24.30
2018-03-02T14:30:31.918Z,25.30
2018-03-02T14:32:58.575Z,25.07
2018-03-02T14:35:24.980Z,24.30
2018-03-02T14:37:51.222Z,22.60
2018-03-02T14:40:18.469Z,24.03
2018-03-02T14:42:44.884Z,25.00
2018-03-02T14:45:11.900Z,24.20
2018-03-02T14:47:38.152Z,25.23
2018-03-02T14:50:04.491Z,24.93
2018-03-02T14:52:30.816Z,25.00
2018-03-02T14:54:58.456Z,24.63
2018-03-02T14:57:24.889Z,25.60
2018-03-02T14:59:51.903Z,24.47
2018-03-02T15:02:18.320Z,24.03
2018-03-02T15:04:45.350Z,24.37
2018-03-02T15:07:13.666Z,25.90
2018-03-02T15:09:39.936Z,24.73
2018-03-02T15:12:07.763Z,24.70
2018-03-02T15:14:35.094Z,26.07
2018-03-02T15:17:01.465Z,26.43
2018-03-02T15:19:27.780Z,25.67
2018-03-02T15:21:54.145Z,27.67
2018-03-02T15:24:21.293Z,27.03
2018-03-02T15:26:47.583Z,24.43
2018-03-02T15:29:14.623Z,24.50
2018-03-02T15:31:41.644Z,24.47
2018-03-02T15:34:08.718Z,25.23
2018-03-02T15:36:35.480Z,24.53
2018-03-02T15:39:01.760Z,24.27
2018-03-02T15:41:28.216Z,23.23
2018-03-02T15:43:54.504Z,25.13
2018-03-02T15:46:21.139Z,25.00
2018-03-02T15:48:47.667Z,23.80
2018-03-02T15:51:13.980Z,24.50
2018-03-02T15:53:40.274Z,24.87
2018-03-02T15:56:06.560Z,22.77
2018-03-02T15:58:33.142Z,23.83
2018-03-02T16:01:00.190Z,23.93
2018-03-02T16:03:26.545Z,24.00
2018-03-02T16:05:53.253Z,23.10
2018-03-02T16:08:20.262Z,22.87
2018-03-02T16:10:46.927Z,24.23
2018-03-02T16:13:13.265Z,24.17
2018-03-02T16:15:43.176Z,23.00
2018-03-02T16:18:09.704Z,22.60
2018-03-02T16:20:36.069Z,23.70
2018-03-02T16:23:02.384Z,23.13
2018-03-02T16:25:28.824Z,22.80
2018-03-02T16:27:55.241Z,22.67
2018-03-02T16:30:21.588Z,23.57
2018-03-02T16:32:47.952Z,21.87
2018-03-02T16:35:14.288Z,22.90
2018-03-02T16:37:46.050Z,24.17
2018-03-02T16:40:12.416Z,23.10
2018-03-02T16:42:39.482Z,22.40
2018-03-02T16:45:05.793Z,26.43
2018-03-02T16:47:32.918Z,27.63
2018-03-02T16:49:59.355Z,24.23
2018-03-02T16:52:25.697Z,23.07
2018-03-02T16:54:52.066Z,23.47
2018-03-02T16:57:19.113Z,22.80
2018-03-02T16:59:45.611Z,22.87
2018-03-02T17:02:12.673Z,22.63
2018-03-02T17:04:39.695Z,26.43
2018-03-02T17:07:05.969Z,25.50
2018-03-02T17:09:32.991Z,25.10
2018-03-02T17:11:59.530Z,25.50
2018-03-02T17:14:25.866Z,27.47
2018-03-02T17:16:52.217Z,25.33
2018-03-02T17:19:18.552Z,26.77
2018-03-02T17:21:44.858Z,26.10
2018-03-02T17:24:12.011Z,26.33
2018-03-02T17:26:38.347Z,28.17
2018-03-02T17:29:04.645Z,25.47
2018-03-02T17:31:31.118Z,26.93
2018-03-02T17:33:57.993Z,27.27
2018-03-02T17:36:24.460Z,24.17
2018-03-02T17:38:51.508Z,28.07
2018-03-02T17:41:18.557Z,26.40
2018-03-02T17:43:44.865Z,28.17
2018-03-02T17:46:11.160Z,28.57
2018-03-02T17:48:38.167Z,26.50
2018-03-02T17:51:04.634Z,28.40
2018-03-02T17:53:30.991Z,26.83
2018-03-02T17:55:58.090Z,26.77
2018-03-02T17:58:25.516Z,25.30
2018-03-02T18:00:51.912Z,24.83
2018-03-02T18:03:18.241Z,27.90
2018-03-02T18:05:44.489Z,25.80
2018-03-02T18:08:11.166Z,26.80
2018-03-02T18:10:37.626Z,23.67
2018-03-02T18:13:03.935Z,25.93
2018-03-02T18:15:31.908Z,25.43
2018-03-02T18:17:58.548Z,23.63
2018-03-02T18:20:24.886Z,25.33
2018-03-02T18:22:51.955Z,25.63
2018-03-02T18:25:18.558Z,24.83
2018-03-02T18:27:44.892Z,25.73
2018-03-02T18:30:11.245Z,25.47
2018-03-02T18:32:37.609Z,25.37
2018-03-02T18:35:04.615Z,25.47
2018-03-02T18:37:30.962Z,25.37
2018-03-02T18:39:57.594Z,28.97
2018-03-02T18:42:24.839Z,30.67
2018-03-02T18:44:51.129Z,31.57
2018-03-02T18:47:17.552Z,32.53
2018-03-02T18:49:43.835Z,31.13
2018-03-02T18:52:10.894Z,26.10
2018-03-02T18:54:37.244Z,30.33
2018-03-02T18:57:03.716Z,26.23
2018-03-02T18:59:30.918Z,32.07
2018-03-02T19:01:58.460Z,28.93
2018-03-02T19:04:24.922Z,30.57
2018-03-02T19:06:51.322Z,27.33
2018-03-02T19:09:17.971Z,30.43
2018-03-02T19:11:44.297Z,26.90
2018-03-02T19:14:10.642Z,29.00
2018-03-02T19:16:37.591Z,25.83
2018-03-02T19:19:03.906Z,29.00
2018-03-02T19:21:30.458Z,26.37
2018-03-02T19:23:58.250Z,26.30
2018-03-02T19:26:24.652Z,26.13
2018-03-02T19:28:51.726Z,28.63
2018-03-02T19:31:18.734Z,31.30
2018-03-02T19:33:45.090Z,27.80
2018-03-02T19:36:11.370Z,33.00
2018-03-02T19:38:38.428Z,33.33
2018-03-02T19:41:05.690Z,30.33
2018-03-02T19:43:32.007Z,27.47
2018-03-02T19:45:59.155Z,34.83
2018-03-02T19:48:25.636Z,30.57
2018-03-02T19:50:53.095Z,30.43
2018-03-02T19:53:19.385Z,30.73
2018-03-02T19:55:45.647Z,29.47
2018-03-02T19:58:12.105Z,29.10
2018-03-02T20:00:38.473Z,26.50
2018-03-02T20:03:04.781Z,24.80
2018-03-02T20:05:31.559Z,24.03
2018-03-02T20:07:58.110Z,23.23
2018-03-02T20:10:24.496Z,24.03
2018-03-02T20:12:50.860Z,23.47
2018-03-02T20:15:17.227Z,25.33
2018-03-02T20:17:43.654Z,23.67
2018-03-02T20:20:09.991Z,25.33
2018-03-02T20:22:36.283Z,23.00
2018-03-02T20:25:02.655Z,24.90
2018-03-02T20:27:29.269Z,24.17
2018-03-02T20:29:56.333Z,26.40
2018-03-02T20:32:23.358Z,26.23
2018-03-02T20:34:49.645Z,24.93
2018-03-02T20:37:15.998Z,26.70
2018-03-02T20:39:42.271Z,26.07
2018-03-02T20:42:08.573Z,26.80
2018-03-02T20:44:36.692Z,23.80
2018-03-02T20:47:03.015Z,24.83
2018-03-02T20:49:31.230Z,24.23
2018-03-02T20:51:57.977Z,26.57
2018-03-02T20:54:24.611Z,25.23
2018-03-02T20:56:50.920Z,25.20
2018-03-02T20:59:18.179Z,22.37
2018-03-02T21:01:44.504Z,27.57
2018-03-02T21:04:11.707Z,26.70
2018-03-02T21:06:38.740Z,25.80
2018-03-02T21:09:05.077Z,26.43
2018-03-02T21:11:31.482Z,27.50
2018-03-02T21:13:58.188Z,27.53
2018-03-02T21:16:25.305Z,27.90
2018-03-02T21:18:51.629Z,26.63
2018-03-02T21:21:17.991Z,27.67
2018-03-02T21:23:44.404Z,27.97
2018-03-02T21:26:11.496Z,26.57
2018-03-02T21:28:37.810Z,27.97
2018-03-02T21:31:07.475Z,26.47
2018-03-02T21:33:33.871Z,30.67
2018-03-02T21:36:00.495Z,29.53
2018-03-02T21:38:27.426Z,31.57
2018-03-02T21:40:53.804Z,29.70
2018-03-02T21:43:20.130Z,29.17
2018-03-02T21:45:46.434Z,28.67
2018-03-02T21:48:12.728Z,30.40
2018-03-02T21:50:39.079Z,30.20
2018-03-02T21:53:05.475Z,29.40
2018-03-02T21:55:36.956Z,30.00
2018-03-02T21:58:04.013Z,29.67
2018-03-02T22:00:30.410Z,29.30
2018-03-02T22:02:58.453Z,27.87
2018-03-02T22:05:24.770Z,30.27
2018-03-02T22:07:51.237Z,30.37
2018-03-02T22:10:17.719Z,30.17
2018-03-02T22:12:43.945Z,27.87
2018-03-02T22:15:11.720Z,28.90
2018-03-02T22:17:37.968Z,29.60
2018-03-02T22:20:04.341Z,27.37
2018-03-02T22:22:31.658Z,27.67
2018-03-02T22:24:59.906Z,28.03
2018-03-02T22:27:27.485Z,25.30
2018-03-02T22:29:53.858Z,27.07
2018-03-02T22:32:21.638Z,26.73
2018-03-02T22:34:49.039Z,25.60
2018-03-02T22:37:15.303Z,24.83
2018-03-02T22:39:42.281Z,25.70
2018-03-02T22:42:08.668Z,26.17
2018-03-02T22:44:34.937Z,27.73
2018-03-02T22:47:02.159Z,27.23
2018-03-02T22:49:28.863Z,26.33
2018-03-02T22:51:55.391Z,26.97
2018-03-02T22:54:22.395Z,26.73
2018-03-02T22:56:48.641Z,27.60
2018-03-02T22:59:14.990Z,27.50
2018-03-02T23:01:41.235Z,26.97
2018-03-02T23:04:07.510Z,26.67
2018-03-02T23:06:33.768Z,24.73
2018-03-02T23:09:00.831Z,25.83
2018-03-02T23:11:28.199Z,25.07
2018-03-02T23:13:56.274Z,25.43
2018-03-02T23:16:23.294Z,27.60
2018-03-02T23:18:49.559Z,24.13
2018-03-02T23:21:15.852Z,28.27
2018-03-02T23:23:42.118Z,27.70
2018-03-02T23:26:08.464Z,27.00
2018-03-02T23:28:34.724Z,28.70
2018-03-02T23:31:01.042Z,29.27
2018-03-02T23:33:27.370Z,29.50
2018-03-02T23:35:53.672Z,30.43
2018-03-02T23:38:20.818Z,27.33
2018-03-02T23:40:47.117Z,29.20
2018-03-02T23:43:13.420Z,28.17
2018-03-02T23:45:40.476Z,27.30
2018-03-02T23:48:06.756Z,28.90
2018-03-02T23:50:33.017Z,27.90
2018-03-02T23:52:59.344Z,27.23
2018-03-02T23:55:25.630Z,28.43
2018-03-02T23:57:51.877Z,28.53
